sensor_id;sensor_type;location;lat;lon;timestamp;pressure;altitude;pressure_sealevel;temperature;humidity
43281;BME280;62175;49.416;8.690;2023-06-22T00:00:25;100432.48;;;25.92;55.30
43281;BME280;62175;49.416;8.690;2023-06-22T00:02:52;100427.52;;;26.19;55.69
43281;BME280;62175;49.416;8.690;2023-06-22T00:05:19;100430.60;;;26.23;56.73
43281;BME280;62175;49.416;8.690;2023-06-22T00:07:46;100430.56;;;26.24;55.14
43281;BME280;62175;49.416;8.690;2023-06-22T00:10:13;100432.62;;;26.01;56.19
43281;BME280;62175;49.416;8.690;2023-06-22T00:12:39;100430.96;;;25.81;54.97
43281;BME280;62175;49.416;8.690;2023-06-22T00:15:07;100434.46;;;26.05;54.76
43281;BME280;62175;49.416;8.690;2023-06-22T00:17:34;100437.25;;;26.19;54.34
43281;BME280;62175;49.416;8.690;2023-06-22T00:20:01;100435.72;;;26.23;54.94
43281;BME280;62175;49.416;8.690;2023-06-22T00:22:28;100442.74;;;26.25;55.21
43281;BME280;62175;49.416;8.690;2023-06-22T00:24:55;100439.90;;;26.12;55.07
43281;BME280;62175;49.416;8.690;2023-06-22T00:27:22;100438.26;;;26.03;55.40
43281;BME280;62175;49.416;8.690;2023-06-22T00:29:49;100442.08;;;25.88;55.96
43281;BME280;62175;49.416;8.690;2023-06-22T00:32:16;100448.40;;;25.93;54.90
43281;BME280;62175;49.416;8.690;2023-06-22T00:34:43;100465.66;;;25.87;55.60
43281;BME280;62175;49.416;8.690;2023-06-22T00:37:11;100480.19;;;25.84;55.00
43281;BME280;62175;49.416;8.690;2023-06-22T00:39:38;100490.33;;;25.90;54.76
43281;BME280;62175;49.416;8.690;2023-06-22T00:42:05;100511.16;;;25.91;54.58
43281;BME280;62175;49.416;8.690;2023-06-22T00:44:32;100538.29;;;25.81;53.90
43281;BME280;62175;49.416;8.690;2023-06-22T00:47:00;100590.05;;;25.79;54.34
43281;BME280;62175;49.416;8.690;2023-06-22T00:49:27;100651.90;;;25.72;54.95
43281;BME280;62175;49.416;8.690;2023-06-22T00:51:55;100714.93;;;25.50;54.46
43281;BME280;62175;49.416;8.690;2023-06-22T00:54:22;100776.79;;;25.56;55.23
43281;BME280;62175;49.416;8.690;2023-06-22T00:56:49;100799.32;;;25.53;55.05
43281;BME280;62175;49.416;8.690;2023-06-22T02:02:53;100503.92;;;25.23;65.77
43281;BME280;62175;49.416;8.690;2023-06-22T02:05:26;100512.19;;;24.79;65.84
43281;BME280;62175;49.416;8.690;2023-06-22T02:08:00;100517.13;;;25.10;65.08
43281;BME280;62175;49.416;8.690;2023-06-22T02:10:31;100521.22;;;25.29;65.53
43281;BME280;62175;49.416;8.690;2023-06-22T02:12:59;100524.87;;;25.37;64.54
43281;BME280;62175;49.416;8.690;2023-06-22T02:15:27;100527.48;;;25.18;65.05
43281;BME280;62175;49.416;8.690;2023-06-22T02:17:55;100520.70;;;24.84;65.68
43281;BME280;62175;49.416;8.690;2023-06-22T02:20:24;100518.24;;;24.96;64.21
43281;BME280;62175;49.416;8.690;2023-06-22T02:22:50;100520.35;;;25.07;65.18
43281;BME280;62175;49.416;8.690;2023-06-22T02:25:18;100516.66;;;25.10;63.80
43281;BME280;62175;49.416;8.690;2023-06-22T02:27:45;100509.37;;;25.19;64.56
43281;BME280;62175;49.416;8.690;2023-06-22T02:30:12;100505.49;;;24.74;64.79
43281;BME280;62175;49.416;8.690;2023-06-22T02:32:39;100500.57;;;25.15;65.65
43281;BME280;62175;49.416;8.690;2023-06-22T02:35:07;100500.91;;;25.08;65.19
43281;BME280;62175;49.416;8.690;2023-06-22T02:37:35;100503.20;;;25.16;65.24
43281;BME280;62175;49.416;8.690;2023-06-22T02:40:04;100499.08;;;25.13;64.82
43281;BME280;62175;49.416;8.690;2023-06-22T02:42:30;100495.05;;;24.95;65.49
43281;BME280;62175;49.416;8.690;2023-06-22T02:44:57;100488.55;;;24.96;65.09
43281;BME280;62175;49.416;8.690;2023-06-22T02:47:25;100481.43;;;25.12;65.10
43281;BME280;62175;49.416;8.690;2023-06-22T02:49:53;100479.97;;;25.39;64.12
43281;BME280;62175;49.416;8.690;2023-06-22T02:52:20;100476.49;;;25.33;65.02
43281;BME280;62175;49.416;8.690;2023-06-22T02:54:47;100477.34;;;25.31;63.90
43281;BME280;62175;49.416;8.690;2023-06-22T02:57:14;100476.26;;;25.06;65.02
43281;BME280;62175;49.416;8.690;2023-06-22T02:59:41;100471.82;;;24.74;64.43
43281;BME280;62175;49.416;8.690;2023-06-22T03:02:08;100471.69;;;25.37;63.56
43281;BME280;62175;49.416;8.690;2023-06-22T03:04:35;100465.71;;;24.69;64.58
43281;BME280;62175;49.416;8.690;2023-06-22T03:07:02;100459.69;;;24.84;64.30
43281;BME280;62175;49.416;8.690;2023-06-22T03:09:30;100460.19;;;25.12;63.51
43281;BME280;62175;49.416;8.690;2023-06-22T03:11:57;100458.83;;;25.06;64.74
43281;BME280;62175;49.416;8.690;2023-06-22T03:14:24;100463.03;;;24.65;65.10
43281;BME280;62175;49.416;8.690;2023-06-22T03:16:51;100464.88;;;24.89;64.06
43281;BME280;62175;49.416;8.690;2023-06-22T03:19:18;100461.09;;;25.10;63.75
43281;BME280;62175;49.416;8.690;2023-06-22T03:21:45;100449.23;;;25.12;64.16
43281;BME280;62175;49.416;8.690;2023-06-22T03:24:12;100439.16;;;24.62;63.58
43281;BME280;62175;49.416;8.690;2023-06-22T03:26:39;100427.56;;;24.93;63.01
43281;BME280;62175;49.416;8.690;2023-06-22T03:29:06;100422.83;;;24.95;64.10
43281;BME280;62175;49.416;8.690;2023-06-22T03:31:33;100426.11;;;24.93;63.99
43281;BME280;62175;49.416;8.690;2023-06-22T03:34:00;100432.15;;;24.65;64.02
43281;BME280;62175;49.416;8.690;2023-06-22T03:36:28;100424.48;;;24.71;63.89
43281;BME280;62175;49.416;8.690;2023-06-22T03:38:55;100427.75;;;24.87;63.46
43281;BME280;62175;49.416;8.690;2023-06-22T03:41:22;100434.47;;;25.08;63.64
43281;BME280;62175;49.416;8.690;2023-06-22T03:43:49;100439.50;;;25.23;63.94
43281;BME280;62175;49.416;8.690;2023-06-22T03:46:16;100439.17;;;25.13;64.08
43281;BME280;62175;49.416;8.690;2023-06-22T03:48:44;100438.31;;;24.67;62.66
43281;BME280;62175;49.416;8.690;2023-06-22T03:51:10;100444.75;;;25.01;64.08
43281;BME280;62175;49.416;8.690;2023-06-22T03:53:37;100436.73;;;25.28;62.47
43281;BME280;62175;49.416;8.690;2023-06-22T03:56:04;100430.70;;;24.54;62.37
43281;BME280;62175;49.416;8.690;2023-06-22T03:58:31;100439.00;;;24.93;61.98
43281;BME280;62175;49.416;8.690;2023-06-22T04:00:59;100446.59;;;24.87;63.05
43281;BME280;62175;49.416;8.690;2023-06-22T04:03:26;100436.24;;;25.22;62.70
43281;BME280;62175;49.416;8.690;2023-06-22T04:05:53;100439.78;;;24.31;61.96
43281;BME280;62175;49.416;8.690;2023-06-22T04:08:20;100435.25;;;24.99;62.03
43281;BME280;62175;49.416;8.690;2023-06-22T04:10:48;100433.55;;;24.91;62.65
43281;BME280;62175;49.416;8.690;2023-06-22T04:13:15;100436.29;;;24.76;62.92
43281;BME280;62175;49.416;8.690;2023-06-22T04:15:42;100432.22;;;24.77;61.76
43281;BME280;62175;49.416;8.690;2023-06-22T04:18:09;100435.28;;;24.88;62.23
43281;BME280;62175;49.416;8.690;2023-06-22T04:20:36;100420.24;;;24.62;61.85
43281;BME280;62175;49.416;8.690;2023-06-22T04:23:03;100410.55;;;24.98;61.56
43281;BME280;62175;49.416;8.690;2023-06-22T04:25:30;100403.70;;;24.73;61.00
43281;BME280;62175;49.416;8.690;2023-06-22T04:27:57;100405.41;;;25.40;61.72
43281;BME280;62175;49.416;8.690;2023-06-22T04:30:25;100404.70;;;25.01;60.65
43281;BME280;62175;49.416;8.690;2023-06-22T04:32:52;100396.56;;;24.86;59.18
43281;BME280;62175;49.416;8.690;2023-06-22T04:35:19;100392.16;;;25.29;58.73
43281;BME280;62175;49.416;8.690;2023-06-22T04:37:46;100390.00;;;24.97;59.23
43281;BME280;62175;49.416;8.690;2023-06-22T04:40:13;100391.97;;;25.29;58.80
43281;BME280;62175;49.416;8.690;2023-06-22T04:42:40;100385.83;;;24.93;60.78
43281;BME280;62175;49.416;8.690;2023-06-22T04:45:07;100391.49;;;25.17;59.39
43281;BME280;62175;49.416;8.690;2023-06-22T04:47:35;100389.38;;;24.90;59.30
43281;BME280;62175;49.416;8.690;2023-06-22T04:50:02;100389.24;;;25.31;59.74
43281;BME280;62175;49.416;8.690;2023-06-22T04:52:29;100392.57;;;25.30;59.32
43281;BME280;62175;49.416;8.690;2023-06-22T04:54:56;100403.69;;;25.22;58.73
43281;BME280;62175;49.416;8.690;2023-06-22T04:57:23;100403.82;;;25.38;58.21
43281;BME280;62175;49.416;8.690;2023-06-22T04:59:50;100396.20;;;25.15;58.84
43281;BME280;62175;49.416;8.690;2023-06-22T05:02:17;100383.69;;;25.27;57.48
43281;BME280;62175;49.416;8.690;2023-06-22T05:04:44;100381.47;;;25.31;58.18
43281;BME280;62175;49.416;8.690;2023-06-22T05:07:11;100379.09;;;24.89;58.37
43281;BME280;62175;49.416;8.690;2023-06-22T05:09:38;100369.75;;;25.22;59.02
43281;BME280;62175;49.416;8.690;2023-06-22T05:12:06;100368.95;;;25.40;57.94
43281;BME280;62175;49.416;8.690;2023-06-22T05:14:33;100366.91;;;25.19;57.63
43281;BME280;62175;49.416;8.690;2023-06-22T05:17:01;100359.87;;;25.38;58.55
43281;BME280;62175;49.416;8.690;2023-06-22T05:19:28;100359.90;;;25.23;58.70
43281;BME280;62175;49.416;8.690;2023-06-22T05:21:55;100352.34;;;25.42;57.88
43281;BME280;62175;49.416;8.690;2023-06-22T05:24:22;100352.25;;;25.41;58.14
43281;BME280;62175;49.416;8.690;2023-06-22T05:26:49;100353.09;;;25.47;58.08
43281;BME280;62175;49.416;8.690;2023-06-22T05:29:16;100359.24;;;25.26;57.35
43281;BME280;62175;49.416;8.690;2023-06-22T05:31:43;100342.68;;;25.26;58.02
43281;BME280;62175;49.416;8.690;2023-06-22T05:34:10;100340.90;;;25.24;57.53
43281;BME280;62175;49.416;8.690;2023-06-22T05:36:36;100340.43;;;25.26;57.73
43281;BME280;62175;49.416;8.690;2023-06-22T05:39:11;100344.07;;;25.18;58.77
43281;BME280;62175;49.416;8.690;2023-06-22T05:41:38;100338.92;;;25.31;56.79
43281;BME280;62175;49.416;8.690;2023-06-22T05:44:05;100346.47;;;25.03;57.06
43281;BME280;62175;49.416;8.690;2023-06-22T05:46:32;100345.60;;;24.92;57.16
43281;BME280;62175;49.416;8.690;2023-06-22T05:49:00;100340.04;;;25.16;56.73
43281;BME280;62175;49.416;8.690;2023-06-22T05:51:27;100348.56;;;25.22;56.90
43281;BME280;62175;49.416;8.690;2023-06-22T05:53:55;100352.40;;;25.20;56.84
43281;BME280;62175;49.416;8.690;2023-06-22T05:56:23;100342.91;;;25.60;56.65
43281;BME280;62175;49.416;8.690;2023-06-22T05:58:50;100342.86;;;25.21;56.84
43281;BME280;62175;49.416;8.690;2023-06-22T06:01:16;100337.67;;;25.40;56.95
43281;BME280;62175;49.416;8.690;2023-06-22T06:03:43;100332.90;;;25.29;56.30
43281;BME280;62175;49.416;8.690;2023-06-22T06:06:10;100326.86;;;25.40;56.83
43281;BME280;62175;49.416;8.690;2023-06-22T06:08:37;100327.09;;;25.31;56.50
43281;BME280;62175;49.416;8.690;2023-06-22T06:11:04;100326.52;;;25.44;56.12
43281;BME280;62175;49.416;8.690;2023-06-22T06:13:31;100334.07;;;25.29;57.60
43281;BME280;62175;49.416;8.690;2023-06-22T06:15:57;100338.45;;;25.24;55.52
43281;BME280;62175;49.416;8.690;2023-06-22T06:18:25;100333.20;;;25.24;55.83
43281;BME280;62175;49.416;8.690;2023-06-22T06:20:52;100342.54;;;25.31;56.21
43281;BME280;62175;49.416;8.690;2023-06-22T06:23:19;100344.51;;;25.17;57.16
43281;BME280;62175;49.416;8.690;2023-06-22T06:25:46;100349.93;;;25.49;56.66
43281;BME280;62175;49.416;8.690;2023-06-22T06:28:13;100354.74;;;25.82;55.90
43281;BME280;62175;49.416;8.690;2023-06-22T06:30:40;100336.33;;;25.45;56.46
43281;BME280;62175;49.416;8.690;2023-06-22T06:33:08;100334.97;;;25.55;56.22
43281;BME280;62175;49.416;8.690;2023-06-22T06:35:34;100333.32;;;25.53;56.14
43281;BME280;62175;49.416;8.690;2023-06-22T06:38:01;100339.00;;;25.37;56.56
43281;BME280;62175;49.416;8.690;2023-06-22T06:40:28;100336.00;;;25.69;57.52
43281;BME280;62175;49.416;8.690;2023-06-22T06:42:55;100343.28;;;25.40;57.24
43281;BME280;62175;49.416;8.690;2023-06-22T06:45:23;100354.75;;;25.43;57.20
43281;BME280;62175;49.416;8.690;2023-06-22T06:47:52;100350.33;;;25.68;57.74
43281;BME280;62175;49.416;8.690;2023-06-22T06:50:20;100341.81;;;25.61;57.51
43281;BME280;62175;49.416;8.690;2023-06-22T06:52:47;100332.65;;;25.39;57.12
43281;BME280;62175;49.416;8.690;2023-06-22T06:55:14;100336.13;;;25.41;56.65
43281;BME280;62175;49.416;8.690;2023-06-22T06:57:42;100326.03;;;25.17;56.93
43281;BME280;62175;49.416;8.690;2023-06-22T07:00:11;100318.80;;;25.44;56.85
43281;BME280;62175;49.416;8.690;2023-06-22T07:02:39;100316.05;;;25.72;56.15
43281;BME280;62175;49.416;8.690;2023-06-22T07:05:07;100308.97;;;25.51;56.74
43281;BME280;62175;49.416;8.690;2023-06-22T07:07:34;100320.82;;;25.54;57.17
43281;BME280;62175;49.416;8.690;2023-06-22T07:10:04;100333.26;;;25.39;57.58
43281;BME280;62175;49.416;8.690;2023-06-22T07:12:31;100323.71;;;25.84;56.90
43281;BME280;62175;49.416;8.690;2023-06-22T07:15:02;100330.76;;;25.96;56.74
43281;BME280;62175;49.416;8.690;2023-06-22T07:17:30;100321.91;;;25.46;57.50
43281;BME280;62175;49.416;8.690;2023-06-22T07:19:56;100322.02;;;25.64;56.61
43281;BME280;62175;49.416;8.690;2023-06-22T07:22:24;100321.89;;;25.71;55.98
43281;BME280;62175;49.416;8.690;2023-06-22T07:24:51;100316.71;;;25.68;55.83
43281;BME280;62175;49.416;8.690;2023-06-22T07:27:19;100310.34;;;25.70;56.39
43281;BME280;62175;49.416;8.690;2023-06-22T07:29:46;100330.31;;;25.76;56.25
43281;BME280;62175;49.416;8.690;2023-06-22T07:32:12;100321.20;;;25.82;56.04
43281;BME280;62175;49.416;8.690;2023-06-22T07:34:39;100298.46;;;25.67;56.96
43281;BME280;62175;49.416;8.690;2023-06-22T07:37:06;100309.56;;;25.80;56.70
43281;BME280;62175;49.416;8.690;2023-06-22T07:39:34;100305.49;;;26.02;57.34
43281;BME280;62175;49.416;8.690;2023-06-22T07:42:01;100296.42;;;25.76;57.59
43281;BME280;62175;49.416;8.690;2023-06-22T07:44:28;100309.33;;;25.68;57.49
43281;BME280;62175;49.416;8.690;2023-06-22T07:46:55;100334.71;;;25.64;56.54
43281;BME280;62175;49.416;8.690;2023-06-22T07:49:23;100305.28;;;25.74;56.96
43281;BME280;62175;49.416;8.690;2023-06-22T07:51:50;100305.78;;;25.64;56.87
43281;BME280;62175;49.416;8.690;2023-06-22T07:54:16;100332.46;;;25.65;57.61
43281;BME280;62175;49.416;8.690;2023-06-22T07:56:43;100353.09;;;25.68;57.26
43281;BME280;62175;49.416;8.690;2023-06-22T07:59:10;100326.65;;;25.74;57.62
43281;BME280;62175;49.416;8.690;2023-06-22T08:01:37;100320.69;;;25.62;57.59
43281;BME280;62175;49.416;8.690;2023-06-22T08:04:04;100321.35;;;26.19;56.99
43281;BME280;62175;49.416;8.690;2023-06-22T08:06:32;100334.25;;;25.74;57.23
43281;BME280;62175;49.416;8.690;2023-06-22T08:08:59;100327.92;;;25.73;57.27
43281;BME280;62175;49.416;8.690;2023-06-22T08:11:26;100304.09;;;25.74;58.00
43281;BME280;62175;49.416;8.690;2023-06-22T08:13:53;100291.70;;;25.70;59.04
43281;BME280;62175;49.416;8.690;2023-06-22T08:16:20;100297.22;;;26.05;58.83
43281;BME280;62175;49.416;8.690;2023-06-22T08:18:47;100313.27;;;25.76;59.15
43281;BME280;62175;49.416;8.690;2023-06-22T08:21:14;100326.35;;;25.83;59.99
43281;BME280;62175;49.416;8.690;2023-06-22T08:23:41;100326.24;;;25.72;59.71
43281;BME280;62175;49.416;8.690;2023-06-22T08:26:08;100311.33;;;25.77;59.39
43281;BME280;62175;49.416;8.690;2023-06-22T08:28:35;100306.44;;;25.58;60.10
43281;BME280;62175;49.416;8.690;2023-06-22T08:31:12;100303.90;;;25.71;59.80
43281;BME280;62175;49.416;8.690;2023-06-22T08:33:40;100303.66;;;25.70;59.98
43281;BME280;62175;49.416;8.690;2023-06-22T08:39:10;100306.86;;;26.15;59.54
43281;BME280;62175;49.416;8.690;2023-06-22T08:42:34;100305.23;;;25.82;59.19
43281;BME280;62175;49.416;8.690;2023-06-22T09:41:19;100252.13;;;25.68;64.51
43281;BME280;62175;49.416;8.690;2023-06-22T09:44:20;100247.40;;;23.99;62.35
43281;BME280;62175;49.416;8.690;2023-06-22T10:37:05;100183.10;;;25.44;67.18
43281;BME280;62175;49.416;8.690;2023-06-22T10:39:33;100170.22;;;23.99;65.83
43281;BME280;62175;49.416;8.690;2023-06-22T10:42:29;100160.28;;;24.20;63.84
43281;BME280;62175;49.416;8.690;2023-06-22T10:44:57;100160.55;;;24.84;62.35
43281;BME280;62175;49.416;8.690;2023-06-22T10:47:24;100161.61;;;24.85;60.92
43281;BME280;62175;49.416;8.690;2023-06-22T10:49:51;100151.95;;;24.99;59.69
43281;BME280;62175;49.416;8.690;2023-06-22T10:55:30;100149.61;;;27.02;61.20
43281;BME280;62175;49.416;8.690;2023-06-22T10:57:58;100154.31;;;26.40;60.51
43281;BME280;62175;49.416;8.690;2023-06-22T11:00:27;100151.59;;;26.25;61.62
43281;BME280;62175;49.416;8.690;2023-06-22T11:02:54;100151.55;;;26.16;62.17
43281;BME280;62175;49.416;8.690;2023-06-22T11:05:22;100149.16;;;25.88;62.79
43281;BME280;62175;49.416;8.690;2023-06-22T11:07:54;100144.80;;;26.12;62.46
43281;BME280;62175;49.416;8.690;2023-06-22T11:10:21;100140.43;;;26.03;62.91
43281;BME280;62175;49.416;8.690;2023-06-22T11:12:52;100134.92;;;26.14;62.94
43281;BME280;62175;49.416;8.690;2023-06-22T11:15:21;100133.04;;;26.10;63.22
43281;BME280;62175;49.416;8.690;2023-06-22T11:17:55;100124.89;;;25.53;63.17
43281;BME280;62175;49.416;8.690;2023-06-22T11:20:23;100129.58;;;26.04;63.75
43281;BME280;62175;49.416;8.690;2023-06-22T11:22:55;100130.11;;;26.01;63.18
43281;BME280;62175;49.416;8.690;2023-06-22T11:25:23;100124.30;;;25.87;63.47
43281;BME280;62175;49.416;8.690;2023-06-22T11:27:52;100127.50;;;25.80;63.56
43281;BME280;62175;49.416;8.690;2023-06-22T11:30:19;100123.89;;;25.89;63.44
43281;BME280;62175;49.416;8.690;2023-06-22T11:32:48;100124.25;;;25.99;64.29
43281;BME280;62175;49.416;8.690;2023-06-22T11:35:19;100124.92;;;26.25;64.29
43281;BME280;62175;49.416;8.690;2023-06-22T11:37:46;100123.15;;;26.07;63.70
43281;BME280;62175;49.416;8.690;2023-06-22T11:40:14;100123.29;;;26.01;62.97
43281;BME280;62175;49.416;8.690;2023-06-22T11:42:41;100118.75;;;26.01;63.18
43281;BME280;62175;49.416;8.690;2023-06-22T11:45:10;100125.29;;;25.93;62.90
43281;BME280;62175;49.416;8.690;2023-06-22T11:47:38;100123.90;;;25.98;63.30
43281;BME280;62175;49.416;8.690;2023-06-22T11:50:08;100121.64;;;26.00;63.87
43281;BME280;62175;49.416;8.690;2023-06-22T11:52:37;100120.72;;;26.09;63.70
43281;BME280;62175;49.416;8.690;2023-06-22T11:55:07;100118.44;;;25.55;63.90
43281;BME280;62175;49.416;8.690;2023-06-22T11:57:36;100108.43;;;26.03;63.49
43281;BME280;62175;49.416;8.690;2023-06-22T12:00:06;100107.19;;;26.06;63.00
43281;BME280;62175;49.416;8.690;2023-06-22T12:02:35;100109.50;;;25.84;63.11
43281;BME280;62175;49.416;8.690;2023-06-22T12:05:02;100110.34;;;25.91;63.15
43281;BME280;62175;49.416;8.690;2023-06-22T12:07:30;100107.11;;;25.88;62.66
43281;BME280;62175;49.416;8.690;2023-06-22T12:09:59;100110.63;;;26.08;62.98
43281;BME280;62175;49.416;8.690;2023-06-22T12:12:27;100111.48;;;26.03;63.02
43281;BME280;62175;49.416;8.690;2023-06-22T12:15:03;100110.96;;;26.09;62.53
43281;BME280;62175;49.416;8.690;2023-06-22T12:17:34;100117.01;;;25.61;64.29
43281;BME280;62175;49.416;8.690;2023-06-22T12:20:05;100122.37;;;26.02;63.55
43281;BME280;62175;49.416;8.690;2023-06-22T12:22:37;100122.42;;;26.08;63.34
43281;BME280;62175;49.416;8.690;2023-06-22T12:25:07;100121.71;;;26.12;63.85
43281;BME280;62175;49.416;8.690;2023-06-22T12:27:35;100118.43;;;26.06;63.19
43281;BME280;62175;49.416;8.690;2023-06-22T12:30:05;100117.71;;;25.80;63.54
43281;BME280;62175;49.416;8.690;2023-06-22T12:32:35;100121.28;;;26.04;63.55
43281;BME280;62175;49.416;8.690;2023-06-22T12:35:05;100123.51;;;26.05;62.85
43281;BME280;62175;49.416;8.690;2023-06-22T12:37:34;100121.48;;;26.04;64.02
43281;BME280;62175;49.416;8.690;2023-06-22T12:40:09;100115.68;;;25.88;63.77
43281;BME280;62175;49.416;8.690;2023-06-22T12:42:53;100116.73;;;26.08;63.34
43281;BME280;62175;49.416;8.690;2023-06-22T12:45:34;100118.97;;;26.17;63.21
43281;BME280;62175;49.416;8.690;2023-06-22T12:48:02;100120.09;;;25.81;62.35
43281;BME280;62175;49.416;8.690;2023-06-22T12:50:31;100117.79;;;26.02;62.34
43281;BME280;62175;49.416;8.690;2023-06-22T12:53:00;100118.25;;;25.98;62.15
43281;BME280;62175;49.416;8.690;2023-06-22T12:55:28;100118.13;;;25.99;63.40
43281;BME280;62175;49.416;8.690;2023-06-22T12:57:56;100121.74;;;26.00;62.96
43281;BME280;62175;49.416;8.690;2023-06-22T13:00:23;100127.24;;;26.14;63.10
43281;BME280;62175;49.416;8.690;2023-06-22T13:02:52;100134.24;;;26.18;63.18
43281;BME280;62175;49.416;8.690;2023-06-22T13:05:21;100144.42;;;26.15;63.72
43281;BME280;62175;49.416;8.690;2023-06-22T13:07:49;100153.18;;;26.10;63.20
43281;BME280;62175;49.416;8.690;2023-06-22T13:10:17;100154.57;;;25.87;64.19
43281;BME280;62175;49.416;8.690;2023-06-22T13:12:46;100157.31;;;26.31;63.87
